Latest Weather Observations for Perisher Valley

IDN60801

Issued at 11:02 am EST Friday 31 July 2015 (issued every 30 minutes, with the page automatically refreshed every 10 minutes)

About weather observations | Map of weather stations | Latest weather observations for NSW | Other Formats
Station Details ID: 071075 Name: PERISHER VALLEY AWS Lat: -36.41 Lon: 148.41 Height: 1738.0 m
Data from the previous 72 hours. | See also: Recent months at Perisher Valley
Date/Time
EST
Temp
°C
App
Temp
°C
Dew
Point
Rel
Hum
%
Delta-T
°C
Wind Press
QNH
hPa
Press
MSL
hPa
Rain
since 9 am
mm
Dir
 
Spd
km/h
Gust
km/h
Spd
kts
Gust
kts
31/11:00am 0.3 -5.0 -3.2 77 1.3 W 15 28 8 15 - - 0.0
31/10:30am 0.1 -6.1 -3.1 79 1.2 W 20 32 11 17 - - 0.0
31/10:00am 0.1 -6.0 -2.6 82 1.0 WNW 20 32 11 17 - - 0.0
31/09:30am -0.2 -5.8 -3.2 80 1.1 W 17 28 9 15 - - 0.0
31/09:00am -0.1 -5.0 -3.0 81 1.1 W 13 28 7 15 - - 4.2
31/08:30am -0.4 -5.6 -3.1 82 1.0 W 15 28 8 15 - - 4.2
31/08:00am -0.5 -5.7 -2.7 85 0.8 WSW 15 33 8 18 - - 4.2
31/07:30am -0.4 -5.9 -2.1 88 0.6 WSW 17 30 9 16 - - 4.2
31/07:00am -0.3 -6.3 -1.7 90 0.5 W 20 39 11 21 - - 4.2
31/06:30am -0.6 -5.6 -1.3 95 0.2 WNW 15 32 8 17 - - 4.2
31/06:00am -0.9 -6.3 -1.6 95 0.2 WNW 17 33 9 18 - - 4.2
31/05:30am -1.1 -6.9 -1.7 96 0.2 W 19 43 10 23 - - 4.0
31/05:00am -1.3 -7.7 -1.7 97 0.1 W 22 43 12 23 - - 3.8
31/04:30am -1.3 -7.7 -1.7 97 0.1 W 22 46 12 25 - - 3.8
31/04:00am -1.1 -6.9 -1.5 97 0.1 W 19 39 10 21 - - 3.6
31/03:30am -1.1 -7.9 -1.5 97 0.1 WNW 24 54 13 29 - - 3.4
31/03:00am -1.2 -10.4 -1.6 97 0.1 WNW 37 59 20 32 - - 3.2
31/02:30am -1.2 -11.6 -1.8 96 0.2 WNW 43 72 23 39 - - 3.0
31/02:00am -1.1 -12.1 -1.8 95 0.2 WNW 46 70 25 38 - - 2.8
31/01:30am -1.2 -11.6 -1.9 95 0.2 WNW 43 69 23 37 - - 2.6
31/01:00am -1.4 -12.8 -2.1 95 0.2 W 48 80 26 43 - - 2.4
31/12:30am -1.6 -13.4 -2.3 95 0.2 W 50 89 27 48 - - 2.0
31/12:00am -1.8 -13.2 -2.5 95 0.2 W 48 78 26 42 - - 1.8
 
Date/Time
EST
Temp
°C
App
Temp
°C
Dew
Point
Rel
Hum
%
Delta-T
°C
Wind Press
QNH
hPa
Press
MSL
hPa
Rain
since 9 am
mm
Dir
 
Spd
km/h
Gust
km/h
Spd
kts
Gust
kts
30/11:30pm -2.0 -13.1 -2.8 94 0.2 W 46 74 25 40 - - 1.4
30/11:00pm -2.0 -15.6 -3.0 93 0.3 WNW 59 89 32 48 - - 1.2
30/10:30pm -1.8 -15.0 -2.5 95 0.2 W 57 93 31 50 - - 1.0
30/10:22pm -1.7 -15.2 -2.4 95 0.2 WNW 59 89 32 48 - - 0.8
30/10:00pm -1.8 -13.6 -2.6 94 0.2 WNW 50 93 27 50 - - 0.6
30/09:56pm -1.9 -14.9 -3.0 92 0.3 WNW 56 93 30 50 - - 0.6
30/09:30pm -1.3 -15.2 -2.1 94 0.2 WNW 61 89 33 48 - - 0.2
30/09:11pm -1.4 -13.2 -2.1 95 0.2 WNW 50 87 27 47 - - 0.0
30/09:00pm -1.5 -10.9 -2.6 92 0.3 WNW 37 80 20 43 - - 0.0
30/08:30pm -1.4 -13.4 -3.6 85 0.7 W 50 82 27 44 - - 0.0
30/08:00pm -1.6 -14.6 -2.9 91 0.4 W 56 91 30 49 - - 0.0
30/07:30pm -1.6 -15.2 -2.9 91 0.4 W 59 89 32 48 - - 0.0
30/07:00pm -1.7 -13.2 -3.0 91 0.4 W 48 83 26 45 - - 0.0
30/06:30pm -1.7 -11.1 -2.7 93 0.3 W 37 70 20 38 - - 0.0
30/06:00pm -1.7 -10.3 -2.8 92 0.3 W 33 70 18 38 - - 0.0
30/05:30pm -1.8 -10.2 -2.8 93 0.3 W 32 67 17 36 - - 0.0
30/05:00pm -1.6 -9.7 -3.0 90 0.4 W 30 56 16 30 - - 0.0
30/04:30pm -1.5 -9.6 -2.9 90 0.4 W 30 61 16 33 - - 0.0
30/04:00pm -1.5 -9.6 -2.8 91 0.4 W 30 59 16 32 - - 0.0
30/03:51pm -1.4 -8.7 -2.8 90 0.5 W 26 59 14 32 - - 0.0
30/03:30pm -1.3 -7.9 -2.9 89 0.5 W 22 61 12 33 - - 0.0
30/03:00pm -1.2 -8.3 -4.2 80 1.0 W 24 52 13 28 - - 0.0
30/02:30pm -1.2 -5.7 -3.4 85 0.8 WNW 11 30 6 16 - - 0.0
30/02:00pm -1.1 -6.4 -3.9 81 1.0 W 15 44 8 24 - - 0.0
30/01:30pm -1.2 -6.2 -3.9 82 0.9 W 13 32 7 17 - - 0.0
30/01:00pm -1.1 -9.0 -5.0 75 1.3 W 28 39 15 21 - - 0.0
30/12:30pm -1.5 -11.5 -5.2 76 1.2 W 39 61 21 33 - - 0.0
30/12:00pm -1.9 -11.4 -4.1 85 0.7 W 37 61 20 33 - - 0.0
30/11:32am -1.7 -9.6 -4.5 81 0.9 W 28 59 15 32 - - 0.0
30/11:30am -1.7 -8.8 -4.4 82 0.9 W 24 46 13 25 - - 0.0
30/11:00am -1.9 -10.2 -4.6 82 0.9 W 30 48 16 26 - - 0.0
30/10:30am -1.6 -10.5 -5.6 74 1.3 W 33 56 18 30 - - 0.0
30/10:00am -0.7 -9.8 -7.3 61 2.2 W 33 52 18 28 - - 0.0
30/09:30am -0.9 -9.9 -7.9 59 2.3 W 32 50 17 27 - - 0.0
30/09:00am -2.0 -10.9 -6.7 70 1.5 W 32 46 17 25 - - 0.0
30/08:54am -2.5 -11.3 -6.1 76 1.1 W 32 50 17 27 - - 0.0
30/08:30am -1.3 -10.5 -8.7 57 2.3 W 33 48 18 26 - - 0.0
30/08:02am 0.4 -8.9 -12.2 38 3.8 W 32 50 17 27 - - 0.0
30/08:00am 0.6 -8.9 -12.7 36 4.0 W 33 50 18 27 - - 0.0
30/07:30am 0.1 -9.2 -12.8 37 3.8 W 32 46 17 25 - - 0.0
30/07:00am -1.8 -11.0 -8.7 59 2.1 W 33 52 18 28 - - 0.0
30/06:30am -0.1 -9.6 -15.2 31 4.1 W 32 52 17 28 - - 0.0
30/06:25am -0.3 -9.9 -14.2 34 3.9 W 33 52 18 28 - - 0.0
30/06:00am -1.1 -10.0 -12.6 41 3.3 W 30 46 16 25 - - 0.0
30/05:30am -1.3 -10.8 -12.5 42 3.2 W 33 52 18 28 - - 0.0
30/05:00am -1.9 -11.5 -9.0 58 2.2 W 35 57 19 31 - - 0.0
30/04:33am -2.0 -11.3 -9.4 57 2.2 W 33 52 18 28 - - 0.0
30/04:30am -2.1 -11.4 -9.2 58 2.1 W 33 50 18 27 - - 0.0
30/04:04am -2.2 -10.5 -8.9 60 2.0 W 28 46 15 25 - - 0.0
30/04:00am -2.1 -10.4 -9.5 57 2.2 W 28 43 15 23 - - 0.0
30/03:30am -2.2 -9.4 -9.1 59 2.1 W 22 39 12 21 - - 0.0
30/03:00am -2.2 -9.7 -8.7 61 2.0 W 24 43 13 23 - - 0.0
30/02:30am -2.3 -9.4 -8.8 61 1.9 W 22 48 12 26 - - 0.0
30/02:00am -1.9 -9.8 -9.0 58 2.2 W 26 43 14 23 - - 0.0
30/01:30am -1.6 -10.3 -9.2 56 2.3 W 30 44 16 24 - - 0.0
30/01:00am -1.5 -9.4 -9.1 56 2.3 W 26 46 14 25 - - 0.0
30/12:30am -0.3 -8.9 -13.2 37 3.7 W 28 46 15 25 - - 0.0
30/12:00am -0.6 -7.4 -11.9 42 3.3 W 19 39 10 21 - - 0.0
 
Date/Time
EST
Temp
°C
App
Temp
°C
Dew
Point
Rel
Hum
%
Delta-T
°C
Wind Press
QNH
hPa
Press
MSL
hPa
Rain
since 9 am
mm
Dir
 
Spd
km/h
Gust
km/h
Spd
kts
Gust
kts
29/11:30pm -0.4 -8.1 -11.4 43 3.3 W 24 35 13 19 - - 0.0
29/11:00pm -0.8 -8.3 -8.7 55 2.5 W 24 33 13 18 - - 0.0
29/10:30pm -0.3 -7.5 -10.0 48 3.0 W 22 37 12 20 - - 0.0
29/10:00pm 0.0 -7.2 -10.2 46 3.2 W 22 43 12 23 - - 0.0
29/09:30pm 2.1 -4.6 -16.3 24 5.2 WSW 17 33 9 18 - - 0.0
29/09:00pm 1.9 -3.3 -17.0 23 5.2 WSW 9 22 5 12 - - 0.0
29/08:30pm 1.3 -3.4 -14.3 30 4.5 SW 7 24 4 13 - - 0.0
29/08:00pm -2.2 -5.1 -8.3 63 1.9 CALM 0 7 0 4 - - 0.0
29/07:30pm -2.2 -5.8 -7.7 66 1.7 SW 4 7 2 4 - - 0.0
29/07:00pm -0.9 -4.1 -7.5 61 2.2 ENE 2 6 1 3 - - 0.0
29/06:30pm -1.2 -4.4 -6.9 65 1.9 SSE 2 4 1 2 - - 0.0
29/06:00pm -0.7 -3.4 -5.9 68 1.8 CALM 0 2 0 1 - - 0.0
29/05:30pm -0.8 -3.8 -5.0 73 1.5 S 2 4 1 2 - - 0.0
29/05:00pm -0.5 -3.4 -4.4 75 1.4 WSW 2 6 1 3 - - 0.0
29/04:30pm -0.3 -3.5 -3.8 77 1.3 SW 4 9 2 5 - - 0.0
29/04:00pm 0.5 -2.6 -2.9 78 1.3 SW 4 11 2 6 - - 0.0
29/03:30pm 0.6 -3.0 -1.9 83 1.0 ESE 7 15 4 8 - - 0.0
29/03:00pm 1.0 -4.1 -1.6 83 1.1 W 15 33 8 18 - - 0.0
29/02:30pm 1.8 -4.0 -1.3 80 1.2 W 19 30 10 16 - - 0.0
29/02:00pm 2.4 -2.2 -1.4 76 1.5 W 13 30 7 16 - - 0.0
29/01:30pm 2.5 -3.0 -2.2 71 1.9 W 17 28 9 15 - - 0.0
29/01:00pm 2.8 -0.9 -3.1 65 2.3 W 7 20 4 11 - - 0.0
29/12:30pm 2.1 -3.5 -3.0 69 2.0 W 17 28 9 15 - - 0.0
29/12:00pm 1.9 -3.8 -4.0 65 2.3 W 17 32 9 17 - - 0.0
29/11:30am 1.9 -4.9 -4.8 61 2.6 W 22 35 12 19 - - 0.0
29/11:00am 2.4 -3.8 -4.8 59 2.8 W 19 30 10 16 - - 0.0
29/10:30am 2.7 -2.0 -4.9 57 3.0 WNW 11 22 6 12 - - 0.0
29/10:00am 2.8 -0.1 -4.6 58 2.8 NNE 2 4 1 2 - - 0.0
29/09:30am 1.7 -1.6 -4.6 63 2.4 N 4 17 2 9 - - 0.0
29/09:00am 0.9 -2.0 -3.9 70 1.8 NNE 2 4 1 2 - - 0.0
29/08:30am -1.2 -4.2 -4.9 76 1.3 NNE 2 9 1 5 - - 0.0
29/08:00am -2.4 -5.4 -4.7 84 0.7 NNE 2 4 1 2 - - 0.0
29/07:30am -4.2 -7.3 -6.0 87 0.4 NNE 2 6 1 3 - - 0.0
29/07:00am -5.1 -8.7 -6.9 87 0.4 W 4 9 2 5 - - 0.0
29/06:30am -5.2 -8.0 -6.6 90 0.2 CALM 0 4 0 2 - - 0.0
29/06:00am -6.6 -10.3 -8.4 87 0.3 ENE 4 11 2 6 - - 0.0
29/05:30am -6.4 -9.3 -7.8 90 0.2 CALM 0 6 0 3 - - 0.0
29/05:00am -6.5 -9.7 -7.7 91 0.1 SW 2 6 1 3 - - 0.0
29/04:30am -6.6 -9.5 -7.8 91 0.1 CALM 0 4 0 2 - - 0.0
29/04:00am -6.7 -9.6 -8.3 88 0.2 CALM 0 0 0 0 - - 0.0
29/03:30am -7.2 -10.9 -8.7 89 0.2 S 4 9 2 5 - - 0.0
29/03:00am -7.0 -10.3 -8.2 91 0.1 SW 2 4 1 2 - - 0.0
29/02:30am -7.0 -9.9 -8.2 91 0.1 CALM 0 2 0 1 - - 0.0
29/02:00am -5.8 -8.9 -6.6 94 0.0 WSW 2 6 1 3 - - 0.0
29/01:30am -6.8 -9.7 -7.9 92 0.1 CALM 0 6 0 3 - - 0.0
29/01:00am -7.6 -11.3 -9.1 89 0.2 NE 4 6 2 3 - - 0.0
29/12:30am -6.5 -10.5 -7.6 92 0.1 SW 6 9 3 5 - - 0.0
29/12:00am -6.8 -10.1 -8.0 91 0.1 NE 2 7 1 4 - - 0.0
 
Date/Time
EST
Temp
°C
App
Temp
°C
Dew
Point
Rel
Hum
%
Delta-T
°C
Wind Press
QNH
hPa
Press
MSL
hPa
Rain
since 9 am
mm
Dir
 
Spd
km/h
Gust
km/h
Spd
kts
Gust
kts
28/11:30pm -6.3 -10.3 -7.2 93 0.0 SW 6 9 3 5 - - 0.0
28/11:00pm -6.5 -10.1 -7.4 93 0.0 WSW 4 7 2 4 - - 0.0
28/10:30pm -6.2 -9.4 -7.4 91 0.1 SW 2 4 1 2 - - 0.0
28/10:00pm -5.4 -8.9 -6.5 92 0.1 SW 4 6 2 3 - - 0.0
28/09:30pm -4.4 -7.8 -5.1 95 0.0 SW 4 6 2 3 - - 0.0
28/09:00pm -5.6 -9.1 -6.8 91 0.2 WSW 4 7 2 4 - - 0.0
28/08:30pm -5.7 -8.9 -7.4 88 0.3 SW 2 4 1 2 - - 0.0
28/08:00pm -4.8 -7.5 -6.0 91 0.2 CALM 0 2 0 1 - - 0.0
28/07:30pm -4.3 -8.1 -5.8 89 0.3 WSW 6 7 3 4 - - 0.0
28/07:00pm -4.4 -7.8 -5.6 91 0.2 WSW 4 9 2 5 - - 0.0
28/06:30pm -4.0 -7.0 -5.1 92 0.2 SSW 2 6 1 3 - - 0.0
28/06:00pm -4.0 -6.7 -5.7 88 0.4 CALM 0 4 0 2 - - 0.0
28/05:30pm -3.4 -6.5 -5.9 83 0.7 WNW 2 4 1 2 - - 0.0
28/05:00pm -1.7 -5.0 -4.0 84 0.7 WSW 4 13 2 7 - - 0.0
28/04:30pm -1.4 -5.1 -4.2 81 0.9 W 6 13 3 7 - - 0.0
28/04:00pm -0.5 -3.4 -3.9 78 1.2 W 2 7 1 4 - - 0.0
28/03:30pm 0.7 -3.4 -3.4 74 1.6 W 9 19 5 10 - - 0.0
28/03:00pm 1.9 -1.2 -3.0 70 1.9 WSW 4 13 2 7 - - 0.0
28/02:30pm 1.4 -2.3 -3.1 72 1.8 SW 7 17 4 9 - - 0.0
28/02:00pm 1.0 -3.1 -3.1 74 1.6 WSW 9 17 5 9 - - 0.0
28/01:30pm 1.3 -2.5 -3.4 71 1.8 WSW 7 17 4 9 - - 0.0
28/01:00pm 1.6 -2.1 -2.9 72 1.8 SW 7 17 4 9 - - 0.0
28/12:30pm 1.6 -2.1 -2.7 73 1.7 SW 7 19 4 10 - - 0.0
28/12:00pm 1.8 -3.0 -2.5 73 1.7 SW 13 28 7 15 - - 0.0
28/11:30am 1.3 -3.1 -2.5 76 1.5 SW 11 24 6 13 - - 0.0

Other Formats:

Comma delimited format used in spreadsheet applications
http://www.bom.gov.au/fwo/IDN60801/IDN60801.94915.axf

JavaScript Object Notation format (JSON) in row-major order
http://www.bom.gov.au/fwo/IDN60801/IDN60801.94915.json